Time;durP1;ratioP1;P1;durP2;ratioP2;P2;SDS_P1;SDS_P2;PMS_P1;PMS_P2;Temp;Humidity;BMP_temperature;BMP_pressure;BME280_temperature;BME280_humidity;BME280_pressure;Samples;Min_cycle;Max_cycle;Signal;HPM_P1;HPM_P2
2022/05/01 00:00:34;;;;;;;;;;;;;;;6.00;61.36;100727.78;2311975;76;20962;-81
2022/05/01 00:03:35;;;;;;;25.95;12.53;;;;;;;5.91;61.52;100733.72;2308059;76;20480;-78
2022/05/01 00:06:36;;;;;;;;;;;;;;;5.85;61.76;100735.87;2314782;77;21051;-80
2022/05/01 00:09:38;;;;;;;27.60;13.75;;;;;;;5.83;61.80;100729.91;2314827;76;20148;-78
2022/05/01 00:12:39;;;;;;;25.15;13.55;;;;;;;5.77;61.83;100724.27;2312514;76;21046;-80
2022/05/01 00:15:41;;;;;;;26.05;13.55;;;;;;;5.73;61.86;100722.38;2312371;76;21041;-79
2022/05/01 00:18:42;;;;;;;23.90;13.00;;;;;;;5.73;61.76;100723.69;2312276;77;21041;-80
2022/05/01 00:21:43;;;;;;;31.12;14.58;;;;;;;5.73;61.67;100712.32;2311601;76;21492;-80
2022/05/01 00:24:45;;;;;;;25.45;13.80;;;;;;;5.76;61.66;100714.23;2308313;77;21615;-78
2022/05/01 00:27:46;;;;;;;25.08;13.18;;;;;;;5.71;61.62;100716.38;2311085;76;21017;-79
2022/05/01 00:30:47;;;;;;;28.87;13.45;;;;;;;5.62;61.75;100711.84;2311838;77;20946;-80
2022/05/01 00:37:07;;;;;;;27.32;13.50;;;;;;;5.51;62.34;100707.90;2310959;77;20549;-78
2022/05/01 00:40:10;;;;;;;29.72;14.43;;;;;;;5.49;62.45;100708.48;2310518;76;21018;-79
2022/05/01 00:43:10;;;;;;;29.72;14.10;;;;;;;5.49;62.68;100705.86;2306142;77;20954;-79
2022/05/01 00:46:11;;;;;;;;;;;;;;;5.45;62.78;100701.31;2317556;76;21507;-79
2022/05/01 00:49:16;;;;;;;27.48;13.80;;;;;;;5.48;62.91;100698.92;2317145;76;20457;-78
2022/05/01 00:52:19;;;;;;;28.10;14.65;;;;;;;5.49;62.82;100696.19;2304671;77;21081;-80
2022/05/01 00:55:22;;;;;;;29.23;14.00;;;;;;;5.57;62.86;100696.88;2302994;76;21565;-78
2022/05/01 00:58:23;;;;;;;25.37;13.28;;;;;;;5.61;62.67;100698.33;2306858;76;21029;-79
2022/05/01 01:01:24;;;;;;;22.07;12.10;;;;;;;5.69;62.60;100697.25;2306534;76;21025;-81
2022/05/01 01:04:26;;;;;;;27.35;13.30;;;;;;;5.70;62.69;100701.55;2302600;76;20990;-78
2022/05/01 01:07:27;;;;;;;24.35;11.85;;;;;;;5.66;62.78;100704.08;2308304;76;21082;-79
2022/05/01 01:10:28;;;;;;;23.50;12.00;;;;;;;5.63;62.88;100695.08;2301148;76;21053;-79
2022/05/01 01:13:29;;;;;;;;;;;;;;;5.62;62.82;100700.00;2308611;76;20943;-79
2022/05/01 01:16:35;;;;;;;23.42;11.95;;;;;;;5.64;62.88;100698.09;2306167;76;20146;-80
2022/05/01 01:19:37;;;;;;;22.98;12.63;;;;;;;5.64;62.70;100705.98;2307425;76;21054;-79
2022/05/01 01:22:44;;;;;;;21.60;12.63;;;;;;;5.62;62.51;100706.58;2303161;76;21088;-79
2022/05/01 01:25:47;;;;;;;26.62;13.20;;;;;;;5.61;62.50;100708.86;2303317;76;21581;-80
2022/05/01 01:28:50;;;;;;;27.58;13.00;;;;;;;5.58;62.45;100701.21;2304199;76;21517;-82
2022/05/01 01:31:55;;;;;;;26.52;12.25;;;;;;;5.53;62.42;100704.67;2304422;76;21001;-80
2022/05/01 01:34:57;;;;;;;25.35;13.68;;;;;;;5.47;62.41;100697.27;2303055;76;21486;-81
2022/05/01 01:37:58;;;;;;;22.00;12.75;;;;;;;5.49;62.37;100701.91;2305814;76;20962;-80
2022/05/01 01:41:04;;;;;;;28.32;13.95;;;;;;;5.49;62.28;100697.95;2308281;76;20974;-81
2022/05/01 01:44:07;;;;;;;24.57;12.80;;;;;;;5.50;62.33;100697.85;2302552;76;20938;-78
2022/05/01 01:47:13;;;;;;;20.45;12.28;;;;;;;5.54;62.29;100696.64;2312115;76;21555;-80
2022/05/01 01:50:14;;;;;;;22.05;12.60;;;;;;;5.61;62.21;100696.53;2305077;76;21006;-79
2022/05/01 01:53:17;;;;;;;23.50;13.22;;;;;;;5.75;62.05;100693.30;2270545;76;21007;-80
2022/05/01 01:56:18;;;;;;;28.77;13.13;;;;;;;5.83;61.90;100686.45;2265386;78;21010;-78
2022/05/01 01:59:19;;;;;;;25.17;12.90;;;;;;;5.91;61.84;100691.09;2262687;78;21006;-79
2022/05/01 02:02:20;;;;;;;;;;;;;;;5.93;61.75;100681.77;2265468;78;20972;-80
2022/05/01 02:05:21;;;;;;;24.37;13.03;;;;;;;5.94;61.70;100690.05;2266104;78;20420;-81
2022/05/01 02:08:22;;;;;;;27.22;12.33;;;;;;;5.93;61.68;100690.98;2264362;78;21103;-80
2022/05/01 02:11:24;;;;;;;25.90;12.88;;;;;;;5.93;61.68;100690.98;2263296;78;20943;-80
2022/05/01 02:14:25;;;;;;;24.80;12.25;;;;;;;5.92;61.59;100690.64;2264244;78;22248;-80
2022/05/01 02:17:26;;;;;;;;;;;;;;;5.89;61.56;100692.20;2267769;78;21026;-80
2022/05/01 02:21:34;;;;;;;28.23;12.53;;;;;;;5.83;61.66;100683.00;2265008;78;20152;-81
2022/05/01 02:23:36;;;;;;;22.90;12.95;;;;;;;5.78;61.67;100685.98;2259016;78;20980;-79
2022/05/01 02:26:37;;;;;;;;;;;;;;;5.71;61.78;100690.05;2265504;78;21022;-81
2022/05/01 02:29:38;;;;;;;21.73;12.35;;;;;;;5.63;62.04;100679.28;2264646;78;20184;-79
2022/05/01 02:32:40;;;;;;;;;;;;;;;5.54;62.25;100686.59;2267203;78;20999;-82
2022/05/01 02:35:41;;;;;;;;;;;;;;;5.50;62.33;100687.81;2268081;78;20145;-82
2022/05/01 02:38:42;;;;;;;27.58;12.80;;;;;;;5.45;62.36;100694.73;2263793;78;20423;-81
2022/05/01 02:41:43;;;;;;;22.67;12.60;;;;;;;5.38;62.38;100690.44;2263015;78;20972;-79
2022/05/01 02:44:45;;;;;;;23.57;12.73;;;;;;;5.32;62.44;100690.92;2263983;78;20962;-80
2022/05/01 02:47:46;;;;;;;28.05;12.93;;;;;;;5.25;62.61;100681.81;2260526;78;21029;-80
2022/05/01 02:50:47;;;;;;;;;;;;;;;5.22;62.67;100680.73;2262711;78;21019;-80
2022/05/01 02:53:48;;;;;;;24.75;12.78;;;;;;;5.15;62.81;100683.02;2309103;75;20106;-80
2022/05/01 02:56:52;;;;;;;;;;;;;;;5.07;63.01;100688.50;2312827;76;20981;-79
2022/05/01 02:59:52;;;;;;;19.30;12.20;;;;;;;5.00;63.16;100680.70;2315544;76;20097;-78
2022/05/01 03:02:57;;;;;;;22.55;12.40;;;;;;;4.95;63.24;100679.73;2314751;76;20985;-79
2022/05/01 03:05:59;;;;;;;23.00;12.30;;;;;;;4.92;63.26;100678.66;2309717;76;21552;-80
2022/05/01 03:09:00;;;;;;;19.40;11.38;;;;;;;4.88;63.26;100676.74;2314646;76;20955;-82
2022/05/01 03:12:03;;;;;;;18.48;11.50;;;;;;;4.84;63.28;100677.94;2313496;76;21437;-79
2022/05/01 03:15:06;;;;;;;20.85;11.75;;;;;;;4.85;63.31;100684.03;2310224;76;21528;-78
2022/05/01 03:24:47;;;;;;;27.02;12.00;;;;;;;4.78;63.67;100677.06;2311295;76;21038;-79
2022/05/01 03:27:48;;;;;;;;;;;;;;;4.78;63.77;100685.44;2311500;76;20967;-79
2022/05/01 03:30:50;;;;;;;23.87;12.53;;;;;;;4.82;63.92;100678.53;2309656;75;20136;-80
2022/05/01 03:33:51;;;;;;;26.00;13.15;;;;;;;4.83;63.97;100679.36;2312749;76;21093;-79
2022/05/01 03:36:53;;;;;;;;;;;;;;;4.85;64.01;100680.92;2314374;76;21001;-80
2022/05/01 03:39:54;;;;;;;20.48;12.25;;;;;;;4.85;64.06;100684.03;2311658;76;20126;-79
2022/05/01 03:42:55;;;;;;;;;;;;;;;4.84;63.92;100681.89;2314221;76;21072;-80
2022/05/01 03:45:56;;;;;;;21.90;12.18;;;;;;;4.85;63.93;100686.66;2311597;76;20086;-81
2022/05/01 03:48:57;;;;;;;20.95;12.28;;;;;;;4.79;63.88;100680.08;2310906;76;20979;-79
2022/05/01 03:51:58;;;;;;;28.05;13.25;;;;;;;4.70;64.23;100681.61;2314281;76;21486;-79
2022/05/01 03:55:00;;;;;;;;;;;;;;;4.58;64.47;100679.05;2303191;76;21001;-79
2022/05/01 03:58:01;;;;;;;23.50;12.73;;;;;;;4.57;64.63;100680.84;2300066;76;20250;-79
2022/05/01 04:01:02;;;;;;;;;;;;;;;4.55;64.78;100686.68;2303414;76;21014;-81
2022/05/01 04:04:04;;;;;;;26.77;13.32;;;;;;;4.56;64.87;100687.06;2305925;76;20105;-78
2022/05/01 04:07:05;;;;;;;22.13;13.25;;;;;;;4.58;64.89;100682.98;2303008;76;20966;-79
2022/05/01 04:10:08;;;;;;;23.50;13.55;;;;;;;4.66;64.91;100687.20;2306863;76;21489;-78
2022/05/01 04:13:12;;;;;;;26.75;13.08;;;;;;;4.74;64.88;100684.00;2307093;76;21518;-79
2022/05/01 04:16:13;;;;;;;25.30;12.70;;;;;;;4.81;64.85;100687.83;2303352;77;21121;-80
2022/05/01 04:19:15;;;;;;;;;;;;;;;4.84;64.87;100688.91;2302903;76;20924;-77
2022/05/01 04:22:17;;;;;;;20.92;12.60;;;;;;;4.84;64.91;100684.97;2301087;76;20124;-80
2022/05/01 04:25:22;;;;;;;27.77;13.90;;;;;;;4.93;64.90;100687.76;2305673;76;20950;-80
2022/05/01 04:28:23;;;;;;;30.43;13.62;;;;;;;5.08;64.97;100691.48;2297232;76;21062;-80
2022/05/01 04:31:24;;;;;;;;;;;;;;;5.21;64.83;100687.42;2308849;76;21565;-80
2022/05/01 04:34:25;;;;;;;21.33;12.50;;;;;;;5.37;64.75;100694.49;2303804;76;20096;-80
2022/05/01 04:37:26;;;;;;;22.20;12.13;;;;;;;5.55;64.80;100697.02;2307206;76;20948;-78
2022/05/01 04:40:28;;;;;;;;;;;;;;;5.84;64.91;100697.83;2309214;76;20989;-81
2022/05/01 04:43:30;;;;;;;18.45;12.47;;;;;;;6.22;65.01;100697.87;2299018;76;20499;-82
2022/05/01 04:46:31;;;;;;;24.72;12.70;;;;;;;6.57;64.57;100691.05;2299778;76;21484;-78
2022/05/01 04:49:32;;;;;;;22.05;12.78;;;;;;;6.88;64.03;100685.86;2304518;76;21037;-80
2022/05/01 04:52:35;;;;;;;;;;;;;;;7.12;63.88;100682.93;2310206;76;20951;-80
2022/05/01 04:55:38;;;;;;;21.05;12.15;;;;;;;7.35;63.93;100686.27;2307240;76;20442;-82
2022/05/01 04:58:40;;;;;;;24.85;12.75;;;;;;;7.66;63.90;100686.22;2307103;77;21027;-81
2022/05/01 05:01:41;;;;;;;17.52;11.33;;;;;;;8.05;63.37;100692.45;2300773;77;20983;-78
2022/05/01 05:04:42;;;;;;;19.98;11.83;;;;;;;8.61;62.89;100694.96;2311993;76;21054;-80
2022/05/01 05:07:43;;;;;;;19.65;12.35;;;;;;;9.20;62.50;100689.92;2313961;77;20967;-81
2022/05/01 05:10:46;;;;;;;19.02;12.00;;;;;;;9.69;62.08;100690.58;2312422;77;20982;-81
2022/05/01 05:13:47;;;;;;;20.77;12.75;;;;;;;10.18;61.80;100685.81;2309884;77;21445;-82
2022/05/01 05:16:48;;;;;;;17.73;10.98;;;;;;;10.77;60.69;100679.57;2310059;77;21100;-80
2022/05/01 05:19:49;;;;;;;17.42;11.88;;;;;;;11.14;59.81;100689.12;2311692;76;20973;-80
2022/05/01 05:22:50;;;;;;;18.35;11.88;;;;;;;11.40;59.23;100687.30;2312385;77;20994;-83
2022/05/01 05:25:51;;;;;;;18.37;12.00;;;;;;;11.51;58.88;100686.16;2312295;76;20974;-82
2022/05/01 05:28:52;;;;;;;22.45;13.18;;;;;;;11.51;58.06;100682.17;2311010;77;21002;-82
2022/05/01 05:31:53;;;;;;;16.93;11.48;;;;;;;11.59;58.29;100682.72;2307320;76;20971;-81
2022/05/01 05:34:55;;;;;;;16.82;10.93;;;;;;;11.74;57.50;100689.58;2312137;76;21026;-81
2022/05/01 05:37:56;;;;;;;19.40;11.65;;;;;;;11.80;57.44;100696.44;2311737;76;20981;-82
2022/05/01 05:40:57;;;;;;;16.42;10.95;;;;;;;11.91;57.17;100692.69;2311252;76;21006;-81
2022/05/01 05:43:58;;;;;;;17.80;10.80;;;;;;;12.02;56.62;100692.39;2309738;77;21516;-82
2022/05/01 05:47:00;;;;;;;17.27;11.12;;;;;;;12.18;56.02;100700.06;2310604;76;20967;-81
2022/05/01 05:50:01;;;;;;;18.00;11.25;;;;;;;12.51;56.49;100699.12;2311999;77;22171;-81
2022/05/01 05:53:03;;;;;;;15.90;10.25;;;;;;;12.94;55.12;100705.10;2314361;76;21085;-82
2022/05/01 05:56:05;;;;;;;18.95;10.80;;;;;;;13.24;55.46;100701.41;2305853;76;20998;-82
2022/05/01 05:59:07;;;;;;;15.98;10.35;;;;;;;13.62;54.57;100702.48;2313596;77;20986;-80
2022/05/01 06:02:09;;;;;;;17.10;9.58;;;;;;;13.65;54.26;100699.46;2311970;77;20924;-80
2022/05/01 06:05:10;;;;;;;18.67;10.65;;;;;;;13.87;53.26;100693.05;2311516;77;20955;-81
2022/05/01 06:08:11;;;;;;;17.17;9.75;;;;;;;14.04;53.36;100698.63;2308880;77;21425;-81
2022/05/01 06:11:12;;;;;;;17.25;9.25;;;;;;;14.06;50.86;100707.80;2309134;77;21505;-81
2022/05/01 06:14:13;;;;;;;15.35;8.95;;;;;;;13.66;51.05;100703.81;2312860;76;20957;-80
2022/05/01 06:17:14;;;;;;;13.38;8.68;;;;;;;13.58;51.22;100705.68;2313069;76;20966;-80
2022/05/01 06:20:16;;;;;;;14.53;9.38;;;;;;;13.73;50.14;100712.45;2312500;77;20978;-80
2022/05/01 06:23:17;;;;;;;13.95;8.48;;;;;;;13.63;49.42;100708.67;2307016;76;20962;-81
2022/05/01 06:26:18;;;;;;;13.00;8.73;;;;;;;13.60;49.63;100709.84;2311649;77;20946;-81
2022/05/01 06:29:19;;;;;;;12.85;7.58;;;;;;;13.67;49.54;100712.13;2314611;77;21012;-79
2022/05/01 06:32:20;;;;;;;19.23;8.93;;;;;;;13.76;49.30;100710.27;2305588;77;21434;-79
2022/05/01 06:35:24;;;;;;;13.18;8.70;;;;;;;13.85;48.89;100712.38;2305531;77;20978;-80
2022/05/01 06:38:25;;;;;;;13.43;8.68;;;;;;;14.09;48.96;100715.45;2308521;77;20926;-80
2022/05/01 06:41:27;;;;;;;11.83;8.63;;;;;;;14.43;48.90;100722.25;2313767;77;21020;-81
2022/05/01 06:44:28;;;;;;;14.80;9.48;;;;;;;14.61;48.01;100720.14;2313037;77;20970;-78
2022/05/01 06:47:29;;;;;;;13.65;8.45;;;;;;;15.05;48.56;100713.28;2313633;76;21044;-79
2022/05/01 06:50:31;;;;;;;14.55;8.03;;;;;;;15.49;47.83;100712.50;2305919;77;21028;-78
2022/05/01 06:53:32;;;;;;;11.95;7.92;;;;;;;15.82;47.44;100713.78;2307528;76;21079;-80
2022/05/01 06:56:34;;;;;;;14.68;8.58;;;;;;;16.35;47.35;100717.08;2306670;76;21575;-81
2022/05/01 06:59:36;;;;;;;13.40;8.78;;;;;;;16.86;46.74;100714.80;2307160;76;21038;-81
2022/05/01 07:02:49;;;;;;;15.10;8.05;;;;;;;17.34;46.03;100718.15;2305646;76;20963;-79
2022/05/01 07:05:50;;;;;;;11.00;7.58;;;;;;;17.62;45.59;100715.43;2304971;76;20958;-81
2022/05/01 07:08:51;;;;;;;14.55;8.83;;;;;;;18.12;45.38;100715.58;2301428;76;21049;-79
2022/05/01 07:11:52;;;;;;;11.70;8.10;;;;;;;18.37;44.21;100717.19;2299956;76;21030;-80
2022/05/01 07:14:53;;;;;;;12.73;8.10;;;;;;;18.50;43.24;100715.06;2303401;76;21033;-81
2022/05/01 07:17:54;;;;;;;19.15;8.75;;;;;;;18.69;43.47;100710.72;2303853;76;20959;-79
2022/05/01 07:20:55;;;;;;;14.10;7.40;;;;;;;19.04;43.22;100710.56;2299721;76;21437;-80
2022/05/01 07:23:57;;;;;;;11.80;8.75;;;;;;;19.32;42.75;100702.78;2304916;76;21010;-79
2022/05/01 07:26:58;;;;;;;13.20;8.60;;;;;;;19.29;42.46;100706.71;2303819;76;21037;-79
2022/05/01 07:29:59;;;;;;;10.80;7.83;;;;;;;19.15;41.56;100706.42;2307059;76;20966;-81
2022/05/01 07:33:01;;;;;;;11.45;8.05;;;;;;;18.89;41.39;100706.72;2305933;76;20943;-78
2022/05/01 07:36:02;;;;;;;11.08;7.78;;;;;;;19.14;41.24;100710.13;2303227;76;20994;-79
2022/05/01 07:39:03;;;;;;;11.70;8.48;;;;;;;19.15;41.14;100707.77;2313299;75;20965;-78
2022/05/01 07:42:05;;;;;;;11.60;8.03;;;;;;;19.19;41.19;100705.78;2306820;76;21000;-79
2022/05/01 07:45:07;;;;;;;13.70;8.45;;;;;;;19.15;40.14;100699.70;2299632;76;21062;-78
2022/05/01 07:48:08;;;;;;;15.68;8.60;;;;;;;19.03;40.69;100704.37;2304926;76;20971;-78
2022/05/01 07:51:09;;;;;;;14.10;8.03;;;;;;;18.97;40.59;100697.63;2306637;76;20997;-78
2022/05/01 07:54:10;;;;;;;13.90;7.62;;;;;;;19.13;40.66;100706.62;2305737;76;21046;-78
2022/05/01 07:57:11;;;;;;;16.55;8.53;;;;;;;19.46;40.21;100707.91;2297720;75;21024;-79
2022/05/01 08:00:13;;;;;;;11.38;7.55;;;;;;;19.41;39.38;100700.98;2301232;76;20958;-79
2022/05/01 08:06:35;;;;;;;12.80;8.80;;;;;;;19.50;38.18;100697.55;2308449;76;21140;-80
2022/05/01 08:09:36;;;;;;;13.22;8.60;;;;;;;19.41;38.42;100696.95;2306315;76;20951;-81
2022/05/01 08:12:37;;;;;;;12.20;9.13;;;;;;;19.48;38.38;100696.43;2305521;76;21306;-81
2022/05/01 08:15:38;;;;;;;12.50;8.25;;;;;;;19.65;38.40;100691.44;2304837;76;20947;-80
2022/05/01 08:22:00;;;;;;;;;;;;;;;20.59;38.02;100681.81;2305865;75;21068;-80
2022/05/01 08:25:01;;;;;;;11.45;8.40;;;;;;;20.65;37.43;100679.30;2305910;76;20131;-81
2022/05/01 08:28:02;;;;;;;11.50;8.08;;;;;;;20.68;38.11;100681.55;2304765;76;21062;-83
2022/05/01 08:31:05;;;;;;;10.50;8.48;;;;;;;20.68;36.68;100681.55;2300962;76;20982;-80
2022/05/01 08:34:07;;;;;;;11.40;8.15;;;;;;;20.35;37.43;100675.84;2302170;76;20915;-81
2022/05/01 08:37:09;;;;;;;14.05;9.70;;;;;;;20.42;37.82;100679.33;2299523;76;21064;-81
2022/05/01 08:40:10;;;;;;;11.03;8.50;;;;;;;20.43;36.90;100670.19;2301754;76;21029;-83
2022/05/01 08:43:19;;;;;;;11.12;7.47;;;;;;;20.33;37.30;100667.98;2297561;76;21061;-82
2022/05/01 08:46:34;;;;;;;9.53;8.20;;;;;;;20.54;37.11;100670.05;2303991;76;21054;-83
2022/05/01 08:49:39;;;;;;;13.10;8.20;;;;;;;20.42;36.98;100663.69;2301371;76;21067;-81
2022/05/01 08:52:41;;;;;;;11.43;8.23;;;;;;;20.27;35.67;100673.40;2303769;76;21603;-80
2022/05/01 08:55:45;;;;;;;11.65;7.55;;;;;;;20.10;35.98;100667.70;2255180;78;21038;-82
2022/05/01 08:58:47;;;;;;;13.72;8.43;;;;;;;20.24;36.14;100666.57;2260790;78;21044;-80
2022/05/01 09:01:48;;;;;;;11.08;7.92;;;;;;;20.28;36.04;100665.64;2258723;78;20974;-81
2022/05/01 09:04:50;;;;;;;11.53;7.72;;;;;;;20.19;35.18;100663.73;2261205;78;20996;-79
2022/05/01 09:07:52;;;;;;;9.90;7.10;;;;;;;20.07;35.42;100670.30;2256794;78;21010;-79
2022/05/01 09:10:53;;;;;;;9.45;6.37;;;;;;;20.08;34.37;100662.55;2257928;78;20982;-83
2022/05/01 09:13:54;;;;;;;10.63;6.45;;;;;;;19.94;33.58;100659.62;2258878;78;20985;-81
2022/05/01 09:17:20;;;;;;;10.90;6.55;;;;;;;19.86;34.28;100655.83;2257646;78;20938;-78
2022/05/01 09:20:22;;;;;;;9.85;7.03;;;;;;;20.12;34.32;100655.66;2259801;78;21508;-79
2022/05/01 09:23:44;;;;;;;9.15;6.70;;;;;;;20.27;32.88;100659.92;2256421;78;21032;-82
2022/05/01 09:26:45;;;;;;;10.30;7.45;;;;;;;20.12;33.35;100654.32;2261741;78;20992;-84
2022/05/01 09:29:46;;;;;;;8.35;5.83;;;;;;;19.84;33.08;100650.64;2257891;78;21477;-83
2022/05/01 09:32:49;;;;;;;8.78;5.90;;;;;;;19.90;33.10;100644.92;2253814;77;20993;-84
2022/05/01 09:35:52;;;;;;;6.97;5.30;;;;;;;19.87;32.95;100644.82;2257202;78;20961;-85
2022/05/01 09:39:05;;;;;;;7.70;5.22;;;;;;;20.13;33.24;100646.56;2258888;78;20993;-82
2022/05/01 09:42:16;;;;;;;7.65;5.72;;;;;;;20.35;32.49;100644.84;2256559;78;21499;-82
2022/05/01 09:45:17;;;;;;;9.88;5.80;;;;;;;20.42;32.73;100645.64;2259096;78;21001;-81
2022/05/01 09:48:21;;;;;;;6.40;5.40;;;;;;;20.38;32.40;100633.13;2258333;78;20976;-81
2022/05/01 09:51:22;;;;;;;5.85;4.83;;;;;;;20.47;30.05;100645.81;2264341;78;21016;-81
2022/05/01 09:54:26;;;;;;;8.65;5.22;;;;;;;20.28;30.11;100633.30;2281152;76;21116;-82
2022/05/01 09:57:27;;;;;;;10.30;6.15;;;;;;;20.18;31.37;100633.77;2309030;76;21081;-81
2022/05/01 10:00:41;;;;;;;6.75;5.20;;;;;;;20.19;31.61;100639.98;2314296;76;21006;-82
2022/05/01 10:03:48;;;;;;;7.12;5.70;;;;;;;20.24;31.67;100636.11;2310769;76;21022;-80
2022/05/01 10:06:55;;;;;;;6.87;5.28;;;;;;;20.25;31.43;100633.22;2314474;76;21074;-81
2022/05/01 10:09:56;;;;;;;7.90;5.60;;;;;;;20.52;30.98;100633.83;2310099;76;20975;-81
2022/05/01 10:12:57;;;;;;;7.12;4.90;;;;;;;20.27;31.33;100634.33;2316169;76;20962;-80
2022/05/01 10:16:00;;;;;;;7.78;4.90;;;;;;;20.12;30.89;100627.37;2312547;76;21029;-81
2022/05/01 10:19:03;;;;;;;9.23;5.50;;;;;;;20.03;30.88;100629.22;2311468;75;21044;-83
2022/05/01 10:22:06;;;;;;;10.72;5.58;;;;;;;19.90;30.61;100628.76;2308046;76;21014;-82
2022/05/01 10:25:11;;;;;;;6.85;4.75;;;;;;;20.01;30.79;100618.64;2311068;76;21648;-84
2022/05/01 10:28:23;;;;;;;7.08;5.05;;;;;;;19.88;30.10;100624.95;2309962;76;21040;-84
2022/05/01 10:32:22;;;;;;;9.35;5.60;;;;;;;19.77;30.35;100620.77;2282708;76;20943;-83
2022/05/01 10:35:48;;;;;;;5.80;4.87;;;;;;;19.77;29.96;100622.94;2307124;76;20951;-82
2022/05/01 10:39:10;;;;;;;6.80;5.10;;;;;;;20.02;31.08;100612.23;2301372;76;21611;-82
2022/05/01 10:42:11;;;;;;;10.82;4.85;;;;;;;20.09;30.40;100610.31;2308073;76;21435;-82
2022/05/01 10:45:30;;;;;;;7.10;5.12;;;;;;;20.00;30.75;100610.80;2309847;76;21022;-83
2022/05/01 10:48:39;;;;;;;7.35;4.85;;;;;;;20.24;31.20;100610.52;2308897;76;21037;-83
2022/05/01 10:51:47;;;;;;;8.60;5.70;;;;;;;20.51;30.16;100600.37;2315337;76;20981;-82
2022/05/01 10:55:05;;;;;;;7.67;5.55;;;;;;;20.51;30.56;100591.75;2313657;76;20991;-84
2022/05/01 10:58:29;;;;;;;6.97;4.85;;;;;;;20.57;30.12;100594.13;2311099;76;21061;-79
2022/05/01 11:01:53;;;;;;;9.88;5.62;;;;;;;20.49;30.39;100593.02;2315053;76;21068;-82
2022/05/01 11:04:57;;;;;;;8.53;6.08;;;;;;;20.80;28.95;100589.44;2307063;76;20970;-85
2022/05/01 11:08:01;;;;;;;7.60;5.17;;;;;;;20.63;30.37;100596.45;2315254;76;21855;-84
2022/05/01 11:11:05;;;;;;;8.90;5.10;;;;;;;20.47;30.25;100591.05;2313746;76;21119;-81
2022/05/01 11:14:06;;;;;;;9.28;5.90;;;;;;;20.49;30.61;100577.66;2311978;76;21014;-83
2022/05/01 11:17:12;;;;;;;8.45;5.67;;;;;;;20.59;29.93;100582.08;2316716;76;20986;-82
2022/05/01 11:20:26;;;;;;;8.53;6.17;;;;;;;20.50;30.07;100579.86;2312397;76;21559;-82
2022/05/01 11:23:33;;;;;;;12.63;5.80;;;;;;;20.63;30.13;100574.89;2311857;76;21025;-80
2022/05/01 11:26:34;;;;;;;9.18;6.08;;;;;;;20.66;30.19;100577.14;2314238;76;21009;-85
2022/05/01 11:29:36;;;;;;;7.10;5.15;;;;;;;20.61;30.15;100567.04;2314114;76;20970;-81
2022/05/01 11:32:50;;;;;;;9.90;5.65;;;;;;;20.70;30.36;100569.74;2309362;76;20989;-81
2022/05/01 11:36:02;;;;;;;8.45;5.53;;;;;;;20.65;29.87;100579.55;2313226;76;20955;-82
2022/05/01 11:39:05;;;;;;;8.53;5.22;;;;;;;20.56;30.14;100562.83;2314420;76;21018;-80
2022/05/01 11:42:29;;;;;;;11.53;5.55;;;;;;;20.67;30.53;100561.28;2313050;76;20904;-81
2022/05/01 11:45:32;;;;;;;11.83;6.70;;;;;;;20.71;29.55;100559.25;2315127;76;20966;-82
2022/05/01 11:48:34;;;;;;;7.45;6.10;;;;;;;20.33;29.40;100552.64;2309857;76;20961;-81
2022/05/01 11:51:37;;;;;;;7.90;6.00;;;;;;;19.80;29.74;100561.11;2312374;76;20982;-80
2022/05/01 11:54:40;;;;;;;8.15;5.42;;;;;;;19.43;30.39;100561.69;2307736;76;21057;-81
2022/05/01 12:04:36;;;;;;;9.15;6.47;;;;;;;19.15;31.00;100558.49;2301476;76;21028;-81
2022/05/01 12:07:37;;;;;;;10.28;5.58;;;;;;;19.13;31.52;100556.53;2310136;76;20996;-79
2022/05/01 12:10:45;;;;;;;10.75;5.85;;;;;;;19.06;31.88;100551.15;2304302;76;20998;-82
2022/05/01 12:13:52;;;;;;;6.42;5.80;;;;;;;19.14;31.92;100546.88;2293272;76;21078;-81
2022/05/01 12:16:53;;;;;;;10.98;5.97;;;;;;;19.48;32.07;100548.41;2294421;76;20982;-82
2022/05/01 12:19:54;;;;;;;7.83;5.08;;;;;;;19.76;32.13;100544.53;2303312;76;21919;-81
2022/05/01 12:22:55;;;;;;;7.35;5.40;;;;;;;20.10;32.08;100539.25;2305010;76;20991;-82
2022/05/01 12:25:57;;;;;;;8.93;5.47;;;;;;;20.23;31.33;100538.83;2303858;76;20981;-81
2022/05/01 12:28:59;;;;;;;7.33;5.87;;;;;;;20.40;31.56;100536.41;2260863;75;20950;-83
2022/05/01 12:32:06;;;;;;;8.18;5.95;;;;;;;20.69;31.94;100530.33;2301088;75;20980;-81
2022/05/01 12:35:09;;;;;;;9.38;5.62;;;;;;;20.80;30.71;100526.07;2303136;76;21026;-81
2022/05/01 12:38:10;;;;;;;7.47;5.55;;;;;;;20.89;30.57;100522.05;2309593;76;20966;-83
2022/05/01 12:44:35;;;;;;;7.30;5.60;;;;;;;20.98;30.46;100519.34;2305478;76;21184;-81
2022/05/01 12:47:47;;;;;;;6.95;4.97;;;;;;;20.70;30.76;100523.09;2301749;76;21366;-81
2022/05/01 12:50:52;;;;;;;7.67;5.53;;;;;;;20.64;30.33;100519.91;2300061;76;20991;-80
2022/05/01 12:54:18;;;;;;;9.23;5.58;;;;;;;20.46;30.79;100517.47;2299964;76;20978;-81
2022/05/01 12:57:35;;;;;;;10.90;5.80;;;;;;;20.03;30.44;100514.75;2300339;76;21024;-83
2022/05/01 13:00:43;;;;;;;10.45;5.20;;;;;;;19.77;31.00;100517.94;2301737;76;21028;-81
2022/05/01 13:03:44;;;;;;;7.90;5.05;;;;;;;19.53;30.83;100518.14;2302284;76;20959;-80
2022/05/01 13:06:45;;;;;;;9.00;5.72;;;;;;;19.35;31.47;100513.49;2298371;76;21086;-84
2022/05/01 13:09:51;;;;;;;9.05;5.33;;;;;;;19.36;31.74;100508.93;2303675;76;21027;-81
2022/05/01 13:12:58;;;;;;;10.90;5.33;;;;;;;19.50;31.53;100506.47;2304854;76;21007;-81
2022/05/01 13:16:05;;;;;;;6.97;5.17;;;;;;;19.47;31.88;100501.52;2302843;76;20940;-81
2022/05/01 13:19:16;;;;;;;8.83;5.97;;;;;;;19.50;31.63;100497.05;2307934;76;20971;-82
2022/05/01 13:22:17;;;;;;;9.78;5.10;;;;;;;19.65;32.17;100499.44;2306881;76;20997;-83
2022/05/01 13:25:18;;;;;;;7.72;5.10;;;;;;;19.83;32.36;100494.18;2303213;75;21017;-82
2022/05/01 13:28:20;;;;;;;6.00;5.25;;;;;;;19.82;31.96;100495.73;2305143;76;20950;-81
2022/05/01 13:31:21;;;;;;;11.38;5.45;;;;;;;19.96;32.53;100485.69;2300797;76;21573;-81
2022/05/01 13:34:23;;;;;;;9.05;5.87;;;;;;;20.05;31.87;100482.52;2303882;75;21503;-80
2022/05/01 13:37:24;;;;;;;9.45;6.12;;;;;;;20.19;32.16;100487.77;2300253;76;21515;-82
2022/05/01 13:47:06;;;;;;;6.35;4.85;;;;;;;20.26;31.40;100477.23;2301508;76;21021;-80
2022/05/01 13:50:08;;;;;;;6.42;4.97;;;;;;;20.22;31.40;100480.61;2305145;76;21528;-82
2022/05/01 13:53:13;;;;;;;8.48;5.35;;;;;;;20.20;31.52;100478.66;2303382;76;20963;-80
2022/05/01 13:56:15;;;;;;;8.78;5.75;;;;;;;20.26;31.38;100477.23;2276739;76;21067;-82
2022/05/01 13:59:16;;;;;;;8.08;5.33;;;;;;;20.38;31.08;100467.39;2264026;78;20975;-81
2022/05/01 14:02:17;;;;;;;8.28;4.85;;;;;;;20.47;31.18;100458.49;2262022;78;20955;-83
2022/05/01 14:05:19;;;;;;;37.08;6.00;;;;;;;20.71;31.22;100454.63;2265585;78;20989;-82
2022/05/01 14:08:20;;;;;;;6.15;4.90;;;;;;;20.88;31.27;100450.79;2262184;78;20950;-81
2022/05/01 14:11:21;;;;;;;7.25;5.08;;;;;;;20.98;31.12;100446.52;2264787;78;20991;-81
2022/05/01 14:14:24;;;;;;;5.95;4.70;;;;;;;21.06;30.82;100445.35;2259840;78;21020;-81
2022/05/01 14:17:25;;;;;;;6.67;4.60;;;;;;;21.17;30.96;100439.71;2261771;77;20998;-81
2022/05/01 14:20:26;;;;;;;8.78;5.30;;;;;;;21.18;30.94;100445.43;2261961;78;21001;-80
2022/05/01 14:23:29;;;;;;;10.55;6.25;;;;;;;21.01;30.46;100446.05;2263248;77;20964;-80
2022/05/01 14:26:30;;;;;;;7.97;5.10;;;;;;;20.77;30.75;100440.23;2264657;78;21048;-80
2022/05/01 14:29:31;;;;;;;7.80;4.97;;;;;;;20.68;31.16;100438.38;2260295;78;20986;-80
2022/05/01 14:32:44;;;;;;;8.90;5.00;;;;;;;20.68;30.91;100445.64;2262590;78;21040;-79
2022/05/01 14:35:50;;;;;;;5.30;4.12;;;;;;;20.48;30.92;100441.79;2261324;77;21065;-79
2022/05/01 14:39:04;;;;;;;5.62;4.78;;;;;;;20.50;31.34;100440.52;2263920;78;21006;-81
2022/05/01 14:42:13;;;;;;;4.87;4.30;;;;;;;20.40;31.19;100442.08;2262343;78;20990;-80
2022/05/01 14:45:15;;;;;;;7.78;4.80;;;;;;;20.15;31.55;100438.38;2265068;77;21477;-79